sensor_id;sensor_type;location;lat;lon;timestamp;P1;durP1;ratioP1;P2;durP2;ratioP2
20397;SDS011;10358;49.590;11.030;2022-11-20T00:00:26;26.60;;;13.80;;
20397;SDS011;10358;49.590;11.030;2022-11-20T00:02:51;25.97;;;13.70;;
20397;SDS011;10358;49.590;11.030;2022-11-20T00:05:17;27.77;;;14.40;;
20397;SDS011;10358;49.590;11.030;2022-11-20T00:07:43;25.73;;;13.23;;
20397;SDS011;10358;49.590;11.030;2022-11-20T00:10:09;28.90;;;14.83;;
20397;SDS011;10358;49.590;11.030;2022-11-20T00:12:34;25.97;;;13.63;;
20397;SDS011;10358;49.590;11.030;2022-11-20T00:15:00;26.90;;;14.13;;
20397;SDS011;10358;49.590;11.030;2022-11-20T00:17:25;25.93;;;13.60;;
20397;SDS011;10358;49.590;11.030;2022-11-20T00:19:51;28.27;;;13.77;;
20397;SDS011;10358;49.590;11.030;2022-11-20T00:22:16;27.00;;;13.90;;
20397;SDS011;10358;49.590;11.030;2022-11-20T00:24:42;25.33;;;13.53;;
20397;SDS011;10358;49.590;11.030;2022-11-20T00:27:07;26.70;;;13.73;;
20397;SDS011;10358;49.590;11.030;2022-11-20T00:29:33;23.60;;;13.20;;
20397;SDS011;10358;49.590;11.030;2022-11-20T00:31:59;22.93;;;12.87;;
20397;SDS011;10358;49.590;11.030;2022-11-20T00:34:24;24.47;;;13.47;;
20397;SDS011;10358;49.590;11.030;2022-11-20T00:36:50;24.57;;;12.33;;
20397;SDS011;10358;49.590;11.030;2022-11-20T00:39:15;25.03;;;13.47;;
20397;SDS011;10358;49.590;11.030;2022-11-20T00:41:41;23.53;;;13.33;;
20397;SDS011;10358;49.590;11.030;2022-11-20T00:44:06;26.50;;;13.57;;
20397;SDS011;10358;49.590;11.030;2022-11-20T00:46:32;26.00;;;13.60;;
20397;SDS011;10358;49.590;11.030;2022-11-20T00:48:57;23.63;;;12.97;;
20397;SDS011;10358;49.590;11.030;2022-11-20T00:51:24;24.30;;;13.37;;
20397;SDS011;10358;49.590;11.030;2022-11-20T00:53:51;22.00;;;12.40;;
20397;SDS011;10358;49.590;11.030;2022-11-20T00:56:17;22.43;;;12.40;;
20397;SDS011;10358;49.590;11.030;2022-11-20T00:58:45;23.80;;;12.77;;
20397;SDS011;10358;49.590;11.030;2022-11-20T01:01:12;25.13;;;13.83;;
20397;SDS011;10358;49.590;11.030;2022-11-20T01:03:41;23.27;;;12.57;;
20397;SDS011;10358;49.590;11.030;2022-11-20T01:06:12;24.80;;;13.10;;
20397;SDS011;10358;49.590;11.030;2022-11-20T01:08:40;23.70;;;13.17;;
20397;SDS011;10358;49.590;11.030;2022-11-20T01:11:07;23.17;;;13.23;;
20397;SDS011;10358;49.590;11.030;2022-11-20T01:13:40;21.90;;;12.57;;
20397;SDS011;10358;49.590;11.030;2022-11-20T01:16:15;25.73;;;13.47;;
20397;SDS011;10358;49.590;11.030;2022-11-20T01:18:43;26.97;;;13.57;;
20397;SDS011;10358;49.590;11.030;2022-11-20T01:21:11;25.43;;;13.47;;
20397;SDS011;10358;49.590;11.030;2022-11-20T01:23:39;24.37;;;13.40;;
20397;SDS011;10358;49.590;11.030;2022-11-20T01:26:07;25.27;;;13.93;;
20397;SDS011;10358;49.590;11.030;2022-11-20T01:28:35;25.80;;;13.83;;
20397;SDS011;10358;49.590;11.030;2022-11-20T01:31:01;26.33;;;14.33;;
20397;SDS011;10358;49.590;11.030;2022-11-20T01:33:27;26.77;;;14.70;;
20397;SDS011;10358;49.590;11.030;2022-11-20T01:35:53;27.03;;;14.00;;
20397;SDS011;10358;49.590;11.030;2022-11-20T01:38:18;28.10;;;15.33;;
20397;SDS011;10358;49.590;11.030;2022-11-20T01:40:53;29.10;;;13.93;;
20397;SDS011;10358;49.590;11.030;2022-11-20T01:43:20;29.53;;;14.60;;
20397;SDS011;10358;49.590;11.030;2022-11-20T01:45:59;25.90;;;14.23;;
20397;SDS011;10358;49.590;11.030;2022-11-20T01:48:53;26.37;;;13.77;;
20397;SDS011;10358;49.590;11.030;2022-11-20T01:51:38;27.47;;;13.60;;
20397;SDS011;10358;49.590;11.030;2022-11-20T01:54:21;25.87;;;13.70;;
20397;SDS011;10358;49.590;11.030;2022-11-20T01:56:51;28.57;;;13.87;;
20397;SDS011;10358;49.590;11.030;2022-11-20T01:59:19;23.83;;;13.60;;
20397;SDS011;10358;49.590;11.030;2022-11-20T02:01:46;24.00;;;13.43;;
20397;SDS011;10358;49.590;11.030;2022-11-20T02:04:11;26.03;;;14.50;;
20397;SDS011;10358;49.590;11.030;2022-11-20T02:06:40;24.40;;;14.23;;
20397;SDS011;10358;49.590;11.030;2022-11-20T02:09:10;26.43;;;14.80;;
20397;SDS011;10358;49.590;11.030;2022-11-20T02:11:36;26.93;;;13.90;;
20397;SDS011;10358;49.590;11.030;2022-11-20T02:14:02;27.17;;;14.27;;
20397;SDS011;10358;49.590;11.030;2022-11-20T02:16:29;27.00;;;14.87;;
20397;SDS011;10358;49.590;11.030;2022-11-20T02:18:57;28.70;;;14.53;;
20397;SDS011;10358;49.590;11.030;2022-11-20T02:24:00;27.63;;;14.70;;
20397;SDS011;10358;49.590;11.030;2022-11-20T02:26:33;25.93;;;14.07;;
20397;SDS011;10358;49.590;11.030;2022-11-20T02:29:04;28.03;;;14.23;;
20397;SDS011;10358;49.590;11.030;2022-11-20T02:31:34;27.00;;;14.37;;
20397;SDS011;10358;49.590;11.030;2022-11-20T02:34:05;26.93;;;14.43;;
20397;SDS011;10358;49.590;11.030;2022-11-20T02:36:30;30.37;;;15.83;;
20397;SDS011;10358;49.590;11.030;2022-11-20T02:38:58;27.47;;;14.80;;
20397;SDS011;10358;49.590;11.030;2022-11-20T02:41:30;29.50;;;14.80;;
20397;SDS011;10358;49.590;11.030;2022-11-20T02:43:57;28.63;;;15.37;;
20397;SDS011;10358;49.590;11.030;2022-11-20T02:46:23;26.10;;;14.33;;
20397;SDS011;10358;49.590;11.030;2022-11-20T02:48:48;27.60;;;14.30;;
20397;SDS011;10358;49.590;11.030;2022-11-20T02:51:14;27.97;;;15.13;;
20397;SDS011;10358;49.590;11.030;2022-11-20T02:53:39;29.77;;;15.13;;
20397;SDS011;10358;49.590;11.030;2022-11-20T02:56:05;28.20;;;15.10;;
20397;SDS011;10358;49.590;11.030;2022-11-20T02:58:31;29.77;;;15.40;;
20397;SDS011;10358;49.590;11.030;2022-11-20T03:00:57;29.43;;;15.63;;
20397;SDS011;10358;49.590;11.030;2022-11-20T03:03:22;27.33;;;15.17;;
20397;SDS011;10358;49.590;11.030;2022-11-20T03:05:48;33.03;;;15.80;;
20397;SDS011;10358;49.590;11.030;2022-11-20T03:08:13;30.53;;;16.00;;
20397;SDS011;10358;49.590;11.030;2022-11-20T03:10:39;32.97;;;16.37;;
20397;SDS011;10358;49.590;11.030;2022-11-20T03:13:04;33.37;;;16.30;;
20397;SDS011;10358;49.590;11.030;2022-11-20T03:15:30;28.60;;;15.33;;
20397;SDS011;10358;49.590;11.030;2022-11-20T03:17:55;31.77;;;15.43;;
20397;SDS011;10358;49.590;11.030;2022-11-20T03:20:21;28.23;;;16.03;;
20397;SDS011;10358;49.590;11.030;2022-11-20T03:22:47;29.47;;;15.70;;
20397;SDS011;10358;49.590;11.030;2022-11-20T03:25:12;29.80;;;15.60;;
20397;SDS011;10358;49.590;11.030;2022-11-20T03:27:38;30.23;;;15.60;;
20397;SDS011;10358;49.590;11.030;2022-11-20T03:30:04;30.17;;;15.67;;
20397;SDS011;10358;49.590;11.030;2022-11-20T03:32:30;29.33;;;15.50;;
20397;SDS011;10358;49.590;11.030;2022-11-20T03:34:56;29.73;;;15.77;;
20397;SDS011;10358;49.590;11.030;2022-11-20T03:37:22;29.27;;;15.87;;
20397;SDS011;10358;49.590;11.030;2022-11-20T03:39:47;27.83;;;14.97;;
20397;SDS011;10358;49.590;11.030;2022-11-20T03:42:13;28.10;;;15.13;;
20397;SDS011;10358;49.590;11.030;2022-11-20T03:44:57;29.47;;;15.57;;
20397;SDS011;10358;49.590;11.030;2022-11-20T03:47:22;29.73;;;15.43;;
20397;SDS011;10358;49.590;11.030;2022-11-20T03:49:48;33.63;;;16.43;;
20397;SDS011;10358;49.590;11.030;2022-11-20T03:52:13;27.70;;;14.73;;
20397;SDS011;10358;49.590;11.030;2022-11-20T03:54:39;32.37;;;16.20;;
20397;SDS011;10358;49.590;11.030;2022-11-20T03:57:04;28.87;;;15.87;;
20397;SDS011;10358;49.590;11.030;2022-11-20T03:59:30;30.73;;;15.80;;
20397;SDS011;10358;49.590;11.030;2022-11-20T04:01:55;30.23;;;16.07;;
20397;SDS011;10358;49.590;11.030;2022-11-20T04:04:21;30.13;;;15.93;;
20397;SDS011;10358;49.590;11.030;2022-11-20T04:06:47;31.43;;;15.57;;
20397;SDS011;10358;49.590;11.030;2022-11-20T04:09:12;30.90;;;16.80;;
20397;SDS011;10358;49.590;11.030;2022-11-20T04:11:39;29.53;;;15.40;;
20397;SDS011;10358;49.590;11.030;2022-11-20T04:14:06;31.47;;;16.70;;
20397;SDS011;10358;49.590;11.030;2022-11-20T04:16:36;32.27;;;16.20;;
20397;SDS011;10358;49.590;11.030;2022-11-20T04:19:03;32.10;;;16.90;;
20397;SDS011;10358;49.590;11.030;2022-11-20T04:21:31;32.33;;;16.50;;
20397;SDS011;10358;49.590;11.030;2022-11-20T04:23:57;31.10;;;16.67;;
20397;SDS011;10358;49.590;11.030;2022-11-20T04:26:24;33.83;;;17.67;;
20397;SDS011;10358;49.590;11.030;2022-11-20T04:28:50;34.43;;;16.80;;
20397;SDS011;10358;49.590;11.030;2022-11-20T04:31:17;35.13;;;17.27;;
20397;SDS011;10358;49.590;11.030;2022-11-20T04:33:44;32.87;;;17.00;;
20397;SDS011;10358;49.590;11.030;2022-11-20T04:36:11;30.60;;;16.33;;
20397;SDS011;10358;49.590;11.030;2022-11-20T04:38:39;31.17;;;16.77;;
20397;SDS011;10358;49.590;11.030;2022-11-20T04:41:06;35.03;;;18.03;;
20397;SDS011;10358;49.590;11.030;2022-11-20T04:43:33;34.03;;;17.90;;
20397;SDS011;10358;49.590;11.030;2022-11-20T04:45:59;33.00;;;17.17;;
20397;SDS011;10358;49.590;11.030;2022-11-20T04:48:26;31.30;;;15.80;;
20397;SDS011;10358;49.590;11.030;2022-11-20T04:50:53;33.63;;;16.73;;
20397;SDS011;10358;49.590;11.030;2022-11-20T04:53:19;32.37;;;16.40;;
20397;SDS011;10358;49.590;11.030;2022-11-20T04:55:45;35.30;;;17.47;;
20397;SDS011;10358;49.590;11.030;2022-11-20T04:58:11;32.87;;;16.33;;
20397;SDS011;10358;49.590;11.030;2022-11-20T05:00:37;38.07;;;17.50;;
20397;SDS011;10358;49.590;11.030;2022-11-20T05:03:03;34.63;;;16.50;;
20397;SDS011;10358;49.590;11.030;2022-11-20T05:05:28;31.40;;;16.27;;
20397;SDS011;10358;49.590;11.030;2022-11-20T05:07:57;32.03;;;16.20;;
20397;SDS011;10358;49.590;11.030;2022-11-20T05:10:24;33.37;;;16.67;;
20397;SDS011;10358;49.590;11.030;2022-11-20T05:12:50;30.30;;;16.40;;
20397;SDS011;10358;49.590;11.030;2022-11-20T05:15:16;33.57;;;17.50;;
20397;SDS011;10358;49.590;11.030;2022-11-20T05:17:46;32.97;;;16.63;;
20397;SDS011;10358;49.590;11.030;2022-11-20T05:20:15;33.07;;;16.87;;
20397;SDS011;10358;49.590;11.030;2022-11-20T05:22:42;31.47;;;16.77;;
20397;SDS011;10358;49.590;11.030;2022-11-20T05:25:08;33.63;;;16.67;;
20397;SDS011;10358;49.590;11.030;2022-11-20T05:27:33;31.20;;;16.70;;
20397;SDS011;10358;49.590;11.030;2022-11-20T05:29:59;33.60;;;16.97;;
20397;SDS011;10358;49.590;11.030;2022-11-20T05:32:24;33.07;;;16.93;;
20397;SDS011;10358;49.590;11.030;2022-11-20T05:34:50;34.33;;;17.00;;
20397;SDS011;10358;49.590;11.030;2022-11-20T05:37:16;33.27;;;16.67;;
20397;SDS011;10358;49.590;11.030;2022-11-20T05:39:42;34.00;;;17.60;;
20397;SDS011;10358;49.590;11.030;2022-11-20T05:42:07;33.10;;;17.33;;
20397;SDS011;10358;49.590;11.030;2022-11-20T05:44:52;34.03;;;17.20;;
20397;SDS011;10358;49.590;11.030;2022-11-20T05:47:17;35.40;;;17.23;;
20397;SDS011;10358;49.590;11.030;2022-11-20T05:49:43;33.23;;;16.77;;
20397;SDS011;10358;49.590;11.030;2022-11-20T05:52:09;35.60;;;17.27;;
20397;SDS011;10358;49.590;11.030;2022-11-20T05:54:34;36.27;;;18.10;;
20397;SDS011;10358;49.590;11.030;2022-11-20T05:57:00;33.93;;;17.63;;
20397;SDS011;10358;49.590;11.030;2022-11-20T05:59:26;35.47;;;17.10;;
20397;SDS011;10358;49.590;11.030;2022-11-20T06:01:51;34.67;;;17.43;;
20397;SDS011;10358;49.590;11.030;2022-11-20T06:04:17;36.40;;;18.00;;
20397;SDS011;10358;49.590;11.030;2022-11-20T06:06:42;37.43;;;18.33;;
20397;SDS011;10358;49.590;11.030;2022-11-20T06:09:08;38.20;;;19.03;;
20397;SDS011;10358;49.590;11.030;2022-11-20T06:11:33;34.00;;;17.73;;
20397;SDS011;10358;49.590;11.030;2022-11-20T06:13:59;35.83;;;17.63;;
20397;SDS011;10358;49.590;11.030;2022-11-20T06:16:24;37.37;;;18.60;;
20397;SDS011;10358;49.590;11.030;2022-11-20T06:18:50;36.97;;;18.60;;
20397;SDS011;10358;49.590;11.030;2022-11-20T06:21:16;33.83;;;18.20;;
20397;SDS011;10358;49.590;11.030;2022-11-20T06:23:43;38.20;;;18.53;;
20397;SDS011;10358;49.590;11.030;2022-11-20T06:28:38;39.43;;;18.77;;
20397;SDS011;10358;49.590;11.030;2022-11-20T06:31:04;38.30;;;18.57;;
20397;SDS011;10358;49.590;11.030;2022-11-20T06:33:31;38.27;;;19.10;;
20397;SDS011;10358;49.590;11.030;2022-11-20T06:35:58;37.93;;;19.03;;
20397;SDS011;10358;49.590;11.030;2022-11-20T06:38:25;39.40;;;19.67;;
20397;SDS011;10358;49.590;11.030;2022-11-20T06:40:51;38.97;;;19.60;;
20397;SDS011;10358;49.590;11.030;2022-11-20T06:43:16;40.83;;;18.87;;
20397;SDS011;10358;49.590;11.030;2022-11-20T06:45:42;39.13;;;19.83;;
20397;SDS011;10358;49.590;11.030;2022-11-20T06:48:08;37.67;;;18.70;;
20397;SDS011;10358;49.590;11.030;2022-11-20T06:50:34;41.63;;;19.90;;
20397;SDS011;10358;49.590;11.030;2022-11-20T06:53:01;39.50;;;19.37;;
20397;SDS011;10358;49.590;11.030;2022-11-20T06:55:28;38.90;;;18.77;;
20397;SDS011;10358;49.590;11.030;2022-11-20T06:57:54;39.97;;;18.87;;
20397;SDS011;10358;49.590;11.030;2022-11-20T07:00:20;36.83;;;17.80;;
20397;SDS011;10358;49.590;11.030;2022-11-20T07:02:45;36.13;;;16.97;;
20397;SDS011;10358;49.590;11.030;2022-11-20T07:05:11;37.37;;;17.80;;
20397;SDS011;10358;49.590;11.030;2022-11-20T07:07:36;35.77;;;17.20;;
20397;SDS011;10358;49.590;11.030;2022-11-20T07:10:02;37.20;;;17.93;;
20397;SDS011;10358;49.590;11.030;2022-11-20T07:12:28;35.97;;;18.23;;
20397;SDS011;10358;49.590;11.030;2022-11-20T07:14:53;39.60;;;18.20;;
20397;SDS011;10358;49.590;11.030;2022-11-20T07:17:19;37.73;;;17.83;;
20397;SDS011;10358;49.590;11.030;2022-11-20T07:19:45;34.63;;;17.63;;
20397;SDS011;10358;49.590;11.030;2022-11-20T07:22:10;37.07;;;17.80;;
20397;SDS011;10358;49.590;11.030;2022-11-20T07:24:36;37.07;;;17.97;;
20397;SDS011;10358;49.590;11.030;2022-11-20T07:27:02;35.87;;;17.27;;
20397;SDS011;10358;49.590;11.030;2022-11-20T07:29:28;35.13;;;17.57;;
20397;SDS011;10358;49.590;11.030;2022-11-20T07:31:54;33.83;;;16.37;;
20397;SDS011;10358;49.590;11.030;2022-11-20T07:34:21;34.50;;;16.33;;
20397;SDS011;10358;49.590;11.030;2022-11-20T07:36:47;34.17;;;17.07;;
20397;SDS011;10358;49.590;11.030;2022-11-20T07:39:12;32.20;;;16.23;;
20397;SDS011;10358;49.590;11.030;2022-11-20T07:41:38;33.40;;;16.93;;
20397;SDS011;10358;49.590;11.030;2022-11-20T07:44:03;36.43;;;17.27;;
20397;SDS011;10358;49.590;11.030;2022-11-20T07:46:29;33.03;;;15.90;;
20397;SDS011;10358;49.590;11.030;2022-11-20T07:48:54;34.63;;;16.73;;
20397;SDS011;10358;49.590;11.030;2022-11-20T07:51:20;32.20;;;17.07;;
20397;SDS011;10358;49.590;11.030;2022-11-20T07:53:46;33.60;;;16.73;;
20397;SDS011;10358;49.590;11.030;2022-11-20T07:56:11;32.30;;;16.77;;
20397;SDS011;10358;49.590;11.030;2022-11-20T07:58:39;31.87;;;16.67;;
20397;SDS011;10358;49.590;11.030;2022-11-20T08:01:05;31.70;;;16.07;;
20397;SDS011;10358;49.590;11.030;2022-11-20T08:03:31;30.40;;;15.90;;
20397;SDS011;10358;49.590;11.030;2022-11-20T08:06:00;32.23;;;15.97;;
20397;SDS011;10358;49.590;11.030;2022-11-20T08:08:27;34.37;;;15.90;;
20397;SDS011;10358;49.590;11.030;2022-11-20T08:10:53;32.60;;;15.03;;
20397;SDS011;10358;49.590;11.030;2022-11-20T08:13:38;28.90;;;15.47;;
20397;SDS011;10358;49.590;11.030;2022-11-20T08:16:22;29.10;;;15.70;;
20397;SDS011;10358;49.590;11.030;2022-11-20T08:18:48;29.30;;;15.37;;
20397;SDS011;10358;49.590;11.030;2022-11-20T08:21:14;29.73;;;15.53;;
20397;SDS011;10358;49.590;11.030;2022-11-20T08:23:40;30.23;;;15.03;;
20397;SDS011;10358;49.590;11.030;2022-11-20T08:26:05;29.43;;;15.13;;
20397;SDS011;10358;49.590;11.030;2022-11-20T08:28:31;28.00;;;14.60;;
20397;SDS011;10358;49.590;11.030;2022-11-20T08:31:00;28.47;;;14.63;;
20397;SDS011;10358;49.590;11.030;2022-11-20T08:33:26;28.80;;;14.83;;
20397;SDS011;10358;49.590;11.030;2022-11-20T08:35:52;32.10;;;15.17;;
20397;SDS011;10358;49.590;11.030;2022-11-20T08:38:17;27.77;;;14.77;;
20397;SDS011;10358;49.590;11.030;2022-11-20T08:40:43;29.93;;;14.60;;
20397;SDS011;10358;49.590;11.030;2022-11-20T08:43:32;28.50;;;14.93;;
20397;SDS011;10358;49.590;11.030;2022-11-20T08:45:57;30.77;;;15.33;;
20397;SDS011;10358;49.590;11.030;2022-11-20T08:48:23;29.07;;;15.10;;
20397;SDS011;10358;49.590;11.030;2022-11-20T08:50:48;30.47;;;15.33;;
20397;SDS011;10358;49.590;11.030;2022-11-20T08:53:14;29.87;;;15.77;;
20397;SDS011;10358;49.590;11.030;2022-11-20T08:55:39;29.27;;;15.13;;
20397;SDS011;10358;49.590;11.030;2022-11-20T08:58:05;32.43;;;16.00;;
20397;SDS011;10358;49.590;11.030;2022-11-20T09:00:32;34.43;;;16.17;;
20397;SDS011;10358;49.590;11.030;2022-11-20T09:02:58;36.93;;;17.47;;
20397;SDS011;10358;49.590;11.030;2022-11-20T09:05:24;32.73;;;17.07;;
20397;SDS011;10358;49.590;11.030;2022-11-20T09:07:49;36.30;;;17.67;;
20397;SDS011;10358;49.590;11.030;2022-11-20T09:10:15;32.73;;;17.27;;
20397;SDS011;10358;49.590;11.030;2022-11-20T09:12:41;36.40;;;18.23;;
20397;SDS011;10358;49.590;11.030;2022-11-20T09:15:06;38.23;;;17.80;;
20397;SDS011;10358;49.590;11.030;2022-11-20T09:17:32;38.87;;;19.10;;
20397;SDS011;10358;49.590;11.030;2022-11-20T09:19:58;37.67;;;18.83;;
20397;SDS011;10358;49.590;11.030;2022-11-20T09:22:23;34.47;;;18.17;;
20397;SDS011;10358;49.590;11.030;2022-11-20T09:24:49;39.23;;;19.87;;
20397;SDS011;10358;49.590;11.030;2022-11-20T09:27:14;36.10;;;18.37;;
20397;SDS011;10358;49.590;11.030;2022-11-20T09:29:45;31.37;;;17.20;;
20397;SDS011;10358;49.590;11.030;2022-11-20T09:32:10;33.83;;;17.43;;
20397;SDS011;10358;49.590;11.030;2022-11-20T09:34:36;32.17;;;17.57;;
20397;SDS011;10358;49.590;11.030;2022-11-20T09:37:02;37.20;;;19.63;;
20397;SDS011;10358;49.590;11.030;2022-11-20T09:39:27;35.97;;;18.80;;
20397;SDS011;10358;49.590;11.030;2022-11-20T09:42:00;36.23;;;17.90;;
20397;SDS011;10358;49.590;11.030;2022-11-20T09:47:01;32.73;;;16.37;;
20397;SDS011;10358;49.590;11.030;2022-11-20T09:49:45;30.70;;;16.67;;
20397;SDS011;10358;49.590;11.030;2022-11-20T09:55:07;36.23;;;19.70;;
20397;SDS011;10358;49.590;11.030;2022-11-20T09:57:36;32.90;;;17.57;;
20397;SDS011;10358;49.590;11.030;2022-11-20T10:00:05;33.83;;;17.43;;
20397;SDS011;10358;49.590;11.030;2022-11-20T10:02:47;32.57;;;17.53;;
20397;SDS011;10358;49.590;11.030;2022-11-20T10:05:25;34.20;;;17.37;;
20397;SDS011;10358;49.590;11.030;2022-11-20T10:10:36;35.80;;;17.97;;
20397;SDS011;10358;49.590;11.030;2022-11-20T10:13:16;34.87;;;18.20;;
20397;SDS011;10358;49.590;11.030;2022-11-20T10:15:56;34.53;;;18.10;;
20397;SDS011;10358;49.590;11.030;2022-11-20T10:18:29;35.53;;;19.07;;
20397;SDS011;10358;49.590;11.030;2022-11-20T10:21:23;34.67;;;17.43;;
20397;SDS011;10358;49.590;11.030;2022-11-20T10:24:12;33.53;;;17.63;;
20397;SDS011;10358;49.590;11.030;2022-11-20T10:29:43;33.27;;;17.47;;
20397;SDS011;10358;49.590;11.030;2022-11-20T10:32:18;32.43;;;17.20;;
20397;SDS011;10358;49.590;11.030;2022-11-20T10:34:59;30.00;;;16.93;;
20397;SDS011;10358;49.590;11.030;2022-11-20T10:37:42;31.03;;;16.77;;
20397;SDS011;10358;49.590;11.030;2022-11-20T10:43:23;32.30;;;16.97;;
20397;SDS011;10358;49.590;11.030;2022-11-20T10:46:08;34.87;;;17.97;;
20397;SDS011;10358;49.590;11.030;2022-11-20T10:48:39;31.07;;;17.30;;
20397;SDS011;10358;49.590;11.030;2022-11-20T10:56:41;33.13;;;17.50;;
20397;SDS011;10358;49.590;11.030;2022-11-20T11:02:21;35.10;;;19.20;;
20397;SDS011;10358;49.590;11.030;2022-11-20T11:04:54;34.17;;;18.97;;
20397;SDS011;10358;49.590;11.030;2022-11-20T11:07:30;34.33;;;19.23;;
20397;SDS011;10358;49.590;11.030;2022-11-20T11:10:00;33.77;;;17.27;;
20397;SDS011;10358;49.590;11.030;2022-11-20T11:12:27;32.70;;;16.30;;
20397;SDS011;10358;49.590;11.030;2022-11-20T11:14:56;30.60;;;16.80;;
20397;SDS011;10358;49.590;11.030;2022-11-20T11:22:42;27.20;;;14.53;;
20397;SDS011;10358;49.590;11.030;2022-11-20T11:25:26;28.27;;;15.13;;
20397;SDS011;10358;49.590;11.030;2022-11-20T11:27:56;30.33;;;16.30;;
20397;SDS011;10358;49.590;11.030;2022-11-20T11:30:25;32.80;;;17.27;;
20397;SDS011;10358;49.590;11.030;2022-11-20T11:33:02;28.10;;;16.17;;
20397;SDS011;10358;49.590;11.030;2022-11-20T11:35:30;28.03;;;15.77;;
20397;SDS011;10358;49.590;11.030;2022-11-20T11:38:03;27.60;;;15.43;;
20397;SDS011;10358;49.590;11.030;2022-11-20T11:40:32;28.17;;;15.53;;
20397;SDS011;10358;49.590;11.030;2022-11-20T11:43:01;26.73;;;14.53;;
20397;SDS011;10358;49.590;11.030;2022-11-20T11:45:54;27.03;;;15.33;;
20397;SDS011;10358;49.590;11.030;2022-11-20T11:48:20;24.13;;;14.20;;
20397;SDS011;10358;49.590;11.030;2022-11-20T11:50:50;27.53;;;14.73;;
20397;SDS011;10358;49.590;11.030;2022-11-20T11:53:17;28.50;;;15.27;;
20397;SDS011;10358;49.590;11.030;2022-11-20T11:56:31;24.20;;;13.53;;
20397;SDS011;10358;49.590;11.030;2022-11-20T11:58:49;22.33;;;13.60;;
20397;SDS011;10358;49.590;11.030;2022-11-20T12:01:31;21.97;;;13.40;;
20397;SDS011;10358;49.590;11.030;2022-11-20T12:10:04;22.30;;;13.87;;
20397;SDS011;10358;49.590;11.030;2022-11-20T12:12:39;24.00;;;13.73;;
20397;SDS011;10358;49.590;11.030;2022-11-20T12:15:10;22.90;;;13.10;;
20397;SDS011;10358;49.590;11.030;2022-11-20T12:17:40;22.90;;;12.90;;
20397;SDS011;10358;49.590;11.030;2022-11-20T12:20:26;22.03;;;12.40;;
20397;SDS011;10358;49.590;11.030;2022-11-20T12:25:43;22.90;;;12.00;;
20397;SDS011;10358;49.590;11.030;2022-11-20T12:28:18;23.63;;;13.00;;
20397;SDS011;10358;49.590;11.030;2022-11-20T12:31:11;21.70;;;12.40;;
20397;SDS011;10358;49.590;11.030;2022-11-20T12:36:27;16.63;;;9.93;;
20397;SDS011;10358;49.590;11.030;2022-11-20T12:56:41;17.50;;;10.33;;
20397;SDS011;10358;49.590;11.030;2022-11-20T12:59:21;16.97;;;9.73;;
20397;SDS011;10358;49.590;11.030;2022-11-20T13:02:08;19.33;;;10.60;;
20397;SDS011;10358;49.590;11.030;2022-11-20T13:07:41;14.80;;;9.50;;
20397;SDS011;10358;49.590;11.030;2022-11-20T13:10:13;14.63;;;9.63;;
20397;SDS011;10358;49.590;11.030;2022-11-20T13:12:57;16.53;;;9.13;;
20397;SDS011;10358;49.590;11.030;2022-11-20T13:18:10;17.93;;;9.47;;
20397;SDS011;10358;49.590;11.030;2022-11-20T13:20:40;14.40;;;8.53;;
20397;SDS011;10358;49.590;11.030;2022-11-20T13:23:10;15.63;;;9.37;;
20397;SDS011;10358;49.590;11.030;2022-11-20T13:25:39;14.93;;;8.80;;
20397;SDS011;10358;49.590;11.030;2022-11-20T13:30:33;15.00;;;8.90;;
20397;SDS011;10358;49.590;11.030;2022-11-20T13:33:07;16.00;;;9.17;;
20397;SDS011;10358;49.590;11.030;2022-11-20T13:35:54;15.87;;;9.77;;
20397;SDS011;10358;49.590;11.030;2022-11-20T13:38:25;16.70;;;10.00;;
20397;SDS011;10358;49.590;11.030;2022-11-20T13:40:55;16.53;;;9.67;;
20397;SDS011;10358;49.590;11.030;2022-11-20T13:43:46;16.47;;;9.47;;
20397;SDS011;10358;49.590;11.030;2022-11-20T13:46:12;18.40;;;9.63;;
20397;SDS011;10358;49.590;11.030;2022-11-20T13:48:39;14.07;;;8.63;;
20397;SDS011;10358;49.590;11.030;2022-11-20T13:53:59;13.87;;;8.20;;
20397;SDS011;10358;49.590;11.030;2022-11-20T13:59:34;15.23;;;9.53;;
20397;SDS011;10358;49.590;11.030;2022-11-20T14:02:12;17.53;;;9.07;;
20397;SDS011;10358;49.590;11.030;2022-11-20T14:04:42;15.87;;;9.27;;
20397;SDS011;10358;49.590;11.030;2022-11-20T14:07:11;16.60;;;8.93;;
20397;SDS011;10358;49.590;11.030;2022-11-20T14:09:37;14.10;;;8.67;;
20397;SDS011;10358;49.590;11.030;2022-11-20T14:12:03;16.50;;;9.43;;
20397;SDS011;10358;49.590;11.030;2022-11-20T14:14:50;16.43;;;9.67;;
20397;SDS011;10358;49.590;11.030;2022-11-20T14:19:47;17.53;;;9.43;;
20397;SDS011;10358;49.590;11.030;2022-11-20T14:22:18;16.70;;;9.80;;
20397;SDS011;10358;49.590;11.030;2022-11-20T14:24:45;17.80;;;9.53;;
20397;SDS011;10358;49.590;11.030;2022-11-20T14:27:25;18.03;;;9.33;;
20397;SDS011;10358;49.590;11.030;2022-11-20T14:29:50;18.13;;;9.83;;
20397;SDS011;10358;49.590;11.030;2022-11-20T14:32:17;18.30;;;10.33;;
20397;SDS011;10358;49.590;11.030;2022-11-20T14:34:45;17.67;;;10.67;;
20397;SDS011;10358;49.590;11.030;2022-11-20T14:37:17;19.90;;;10.90;;
20397;SDS011;10358;49.590;11.030;2022-11-20T14:39:50;20.57;;;11.10;;
20397;SDS011;10358;49.590;11.030;2022-11-20T14:42:18;20.10;;;11.10;;
20397;SDS011;10358;49.590;11.030;2022-11-20T14:44:44;18.33;;;10.17;;
20397;SDS011;10358;49.590;11.030;2022-11-20T14:47:11;16.17;;;9.97;;
20397;SDS011;10358;49.590;11.030;2022-11-20T14:49:40;21.70;;;12.27;;
20397;SDS011;10358;49.590;11.030;2022-11-20T14:52:11;21.80;;;11.00;;
20397;SDS011;10358;49.590;11.030;2022-11-20T14:54:49;16.33;;;9.57;;
20397;SDS011;10358;49.590;11.030;2022-11-20T14:57:27;15.23;;;9.40;;
20397;SDS011;10358;49.590;11.030;2022-11-20T15:02:32;16.70;;;9.67;;
20397;SDS011;10358;49.590;11.030;2022-11-20T15:04:58;16.33;;;9.30;;
20397;SDS011;10358;49.590;11.030;2022-11-20T15:07:27;18.27;;;10.20;;
20397;SDS011;10358;49.590;11.030;2022-11-20T15:12:29;19.53;;;11.57;;
20397;SDS011;10358;49.590;11.030;2022-11-20T15:14:57;20.37;;;12.10;;
20397;SDS011;10358;49.590;11.030;2022-11-20T15:17:23;20.27;;;11.53;;
20397;SDS011;10358;49.590;11.030;2022-11-20T15:19:49;21.00;;;10.90;;
20397;SDS011;10358;49.590;11.030;2022-11-20T15:22:15;17.77;;;10.20;;
20397;SDS011;10358;49.590;11.030;2022-11-20T15:24:43;19.27;;;10.90;;
20397;SDS011;10358;49.590;11.030;2022-11-20T15:27:09;20.93;;;11.03;;
20397;SDS011;10358;49.590;11.030;2022-11-20T15:29:35;23.30;;;11.73;;
20397;SDS011;10358;49.590;11.030;2022-11-20T15:32:01;24.00;;;13.17;;
20397;SDS011;10358;49.590;11.030;2022-11-20T15:34:26;35.90;;;18.67;;
20397;SDS011;10358;49.590;11.030;2022-11-20T15:36:52;27.63;;;13.80;;
20397;SDS011;10358;49.590;11.030;2022-11-20T15:39:19;22.30;;;11.50;;
20397;SDS011;10358;49.590;11.030;2022-11-20T15:41:45;18.00;;;9.50;;
20397;SDS011;10358;49.590;11.030;2022-11-20T15:44:10;14.60;;;9.00;;